Time;durP1;ratioP1;P1;durP2;ratioP2;P2;SDS_P1;SDS_P2;PMS_P1;PMS_P2;Temp;Humidity;BMP_temperature;BMP_pressure;BME280_temperature;BME280_humidity;BME280_pressure;Samples;Min_cycle;Max_cycle;Signal;HPM_P1;HPM_P2
2021/11/26 00:02:21;;;;;;;40.55;26.63;;;;;;;3.55;79.19;98577.44;5026399;28;20222;-75
2021/11/26 00:04:48;;;;;;;38.75;26.58;;;;;;;3.37;79.91;98571.16;5030686;28;20222;-75
2021/11/26 00:07:14;;;;;;;38.72;26.17;;;;;;;3.48;79.93;98579.53;5029387;28;20194;-73
2021/11/26 00:09:41;;;;;;;40.08;27.55;;;;;;;3.49;80.11;98572.41;5029882;28;20195;-73
2021/11/26 00:12:09;;;;;;;41.47;26.75;;;;;;;3.51;79.83;98563.41;5030485;28;20324;-73
2021/11/26 00:14:43;;;;;;;44.03;28.63;;;;;;;3.57;79.67;98567.56;5026222;28;20935;-74
2021/11/26 00:17:17;;;;;;;40.08;25.75;;;;;;;3.76;78.71;98560.47;5028699;28;20187;-74
2021/11/26 00:19:44;;;;;;;40.40;26.83;;;;;;;3.84;77.98;98553.91;5027356;28;20614;-74
2021/11/26 00:22:10;;;;;;;40.97;25.95;;;;;;;3.75;77.28;98550.75;5027625;28;20582;-74
2021/11/26 00:24:37;;;;;;;44.60;26.45;;;;;;;3.74;78.39;98553.47;5025927;28;20621;-75
2021/11/26 00:27:04;;;;;;;38.95;25.75;;;;;;;3.82;77.92;98566.44;5030338;28;20585;-75
2021/11/26 00:29:31;;;;;;;40.75;26.23;;;;;;;3.68;78.47;98564.41;5030557;28;20190;-75
2021/11/26 00:31:58;;;;;;;38.03;25.08;;;;;;;3.46;79.81;98551.22;5030941;28;20297;-74
2021/11/26 00:34:26;;;;;;;41.65;26.60;;;;;;;3.65;78.86;98553.91;5031573;28;20215;-74
2021/11/26 00:36:53;;;;;;;42.97;27.23;;;;;;;3.50;79.17;98545.69;5029647;28;20187;-74
2021/11/26 00:39:19;;;;;;;37.78;26.20;;;;;;;3.81;78.81;98548.72;5033050;28;20225;-75
2021/11/26 00:41:46;;;;;;;41.58;26.00;;;;;;;3.87;78.42;98540.47;5031156;28;20222;-75
2021/11/26 00:44:13;;;;;;;39.22;25.80;;;;;;;3.99;77.72;98539.00;5029401;28;20222;-74
2021/11/26 00:46:40;;;;;;;42.00;26.02;;;;;;;4.05;77.29;98544.91;5029443;28;20645;-74
2021/11/26 00:49:06;;;;;;;39.60;25.50;;;;;;;3.95;77.43;98538.28;5029475;28;20586;-75
2021/11/26 00:51:34;;;;;;;37.72;24.42;;;;;;;4.07;76.67;98542.13;5032313;28;20229;-74
2021/11/26 00:54:01;;;;;;;35.10;23.30;;;;;;;4.13;76.11;98548.03;5031559;28;20610;-75
2021/11/26 00:56:28;;;;;;;39.22;26.25;;;;;;;3.92;77.17;98549.94;5032916;28;20206;-75
2021/11/26 00:58:55;;;;;;;35.08;24.45;;;;;;;3.96;77.24;98538.22;5032669;28;20252;-74
2021/11/26 01:01:22;;;;;;;36.08;24.45;;;;;;;3.92;77.32;98547.28;5033260;28;20282;-73
2021/11/26 01:03:49;;;;;;;36.63;24.73;;;;;;;4.05;76.65;98536.03;5030023;28;20191;-73
2021/11/26 01:06:15;;;;;;;37.60;23.02;;;;;;;4.05;76.38;98538.69;5032164;28;20273;-75
2021/11/26 01:08:43;;;;;;;34.55;22.35;;;;;;;4.24;75.79;98534.19;5032056;28;20280;-74
2021/11/26 01:11:10;;;;;;;37.08;24.70;;;;;;;4.41;74.98;98537.81;5033634;28;20190;-75
2021/11/26 01:13:37;;;;;;;33.55;22.20;;;;;;;4.39;74.81;98546.78;5033199;28;20720;-75
2021/11/26 01:16:04;;;;;;;33.20;23.30;;;;;;;4.32;75.23;98534.69;5026892;28;20226;-74
2021/11/26 01:18:30;;;;;;;37.42;23.42;;;;;;;4.30;75.58;98527.72;5036883;28;20221;-74
2021/11/26 01:20:57;;;;;;;39.40;27.00;;;;;;;4.21;75.92;98531.69;5034007;28;20222;-75
2021/11/26 01:23:25;;;;;;;37.63;26.67;;;;;;;4.24;76.12;98526.22;5026032;28;20699;-73
2021/11/26 01:25:53;;;;;;;44.67;26.83;;;;;;;4.12;76.90;98514.34;5033154;28;20238;-74
2021/11/26 01:28:20;;;;;;;43.55;27.00;;;;;;;4.14;77.05;98512.47;5023022;28;20629;-75
2021/11/26 01:30:48;;;;;;;43.47;27.73;;;;;;;4.02;77.50;98507.75;5026419;28;20231;-74
2021/11/26 01:33:17;;;;;;;43.80;27.10;;;;;;;3.93;78.10;98500.19;5032970;28;20297;-73
2021/11/26 01:35:47;;;;;;;41.55;26.88;;;;;;;3.56;80.22;98496.66;5033156;28;20260;-74
2021/11/26 01:38:14;;;;;;;39.85;28.23;;;;;;;3.76;79.66;98504.53;5032576;28;20274;-74
2021/11/26 01:40:41;;;;;;;42.17;27.27;;;;;;;3.82;79.21;98497.19;5032696;28;20194;-74
2021/11/26 01:43:11;;;;;;;42.80;26.52;;;;;;;3.64;79.66;98488.28;5032379;28;20219;-74
2021/11/26 01:45:43;;;;;;;43.03;27.33;;;;;;;3.55;80.36;98487.81;5032469;28;20277;-74
2021/11/26 01:48:10;;;;;;;46.60;27.70;;;;;;;3.49;80.49;98488.09;5032482;28;20189;-72
2021/11/26 01:50:37;;;;;;;39.45;24.92;;;;;;;3.29;81.66;98475.72;5028819;28;20222;-73
2021/11/26 01:53:04;;;;;;;43.42;28.10;;;;;;;3.18;82.47;98470.03;5031360;28;20304;-74
2021/11/26 01:55:31;;;;;;;41.85;28.30;;;;;;;3.17;82.95;98462.13;5031780;28;20273;-72
2021/11/26 01:57:58;;;;;;;38.10;26.77;;;;;;;3.21;82.74;98459.25;5031248;28;20192;-74
2021/11/26 02:00:30;;;;;;;40.08;26.25;;;;;;;3.12;83.12;98460.53;5032093;28;20283;-74
2021/11/26 02:02:57;;;;;;;41.42;26.05;;;;;;;3.11;83.49;98458.81;5025890;28;20274;-74
2021/11/26 02:05:24;;;;;;;40.70;26.15;;;;;;;3.08;83.62;98452.78;5024146;28;20275;-73
2021/11/26 02:07:51;;;;;;;43.97;28.30;;;;;;;2.79;84.88;98439.00;5032579;28;20328;-74
2021/11/26 02:10:19;;;;;;;39.58;26.55;;;;;;;2.77;85.48;98442.66;5032620;28;20275;-74
2021/11/26 02:12:46;;;;;;;44.92;27.05;;;;;;;3.05;84.62;98437.84;5032963;28;20681;-74
2021/11/26 02:15:17;;;;;;;44.38;28.23;;;;;;;2.92;84.74;98431.34;5032462;28;20256;-73
2021/11/26 02:17:45;;;;;;;43.03;27.98;;;;;;;2.84;85.08;98428.16;5033194;28;20210;-74
2021/11/26 02:20:18;;;;;;;46.83;28.75;;;;;;;2.77;85.56;98432.03;5032663;28;20278;-72
2021/11/26 02:22:45;;;;;;;46.55;27.83;;;;;;;2.77;86.05;98427.56;5032910;28;20586;-74
2021/11/26 02:25:12;;;;;;;45.53;29.45;;;;;;;2.62;86.88;98420.28;5032249;28;20225;-74
2021/11/26 02:27:39;;;;;;;48.15;28.02;;;;;;;2.75;86.63;98424.13;5032529;28;20292;-73
2021/11/26 02:30:14;;;;;;;45.13;27.58;;;;;;;2.94;85.44;98426.81;5032764;28;20557;-72
2021/11/26 02:32:41;;;;;;;44.63;27.52;;;;;;;2.76;85.55;98435.59;5032344;28;20206;-73
2021/11/26 02:35:10;;;;;;;41.13;27.65;;;;;;;2.72;86.30;98432.25;5031858;28;20284;-73
2021/11/26 02:37:38;;;;;;;39.95;25.20;;;;;;;2.66;86.79;98430.69;5032296;28;20195;-74
2021/11/26 02:40:06;;;;;;;47.35;27.80;;;;;;;2.57;86.77;98425.81;5030710;28;20652;-72
2021/11/26 02:42:33;;;;;;;47.67;26.90;;;;;;;2.53;87.07;98421.53;5012947;28;20244;-73
2021/11/26 02:45:00;;;;;;;44.10;28.27;;;;;;;2.60;86.60;98412.41;5018031;28;20227;-73
2021/11/26 02:47:26;;;;;;;46.38;28.75;;;;;;;2.50;87.58;98419.88;5031672;28;20269;-73
2021/11/26 02:49:53;;;;;;;45.03;28.50;;;;;;;2.54;87.63;98417.97;5031898;28;20610;-73
2021/11/26 02:52:19;;;;;;;45.33;26.65;;;;;;;2.23;88.64;98415.78;5031906;28;20291;-73
2021/11/26 02:54:48;;;;;;;40.15;26.30;;;;;;;2.42;88.27;98413.19;5031659;28;20244;-74
2021/11/26 02:57:14;;;;;;;40.50;27.65;;;;;;;2.49;87.50;98404.91;5032369;28;20223;-74
2021/11/26 02:59:41;;;;;;;40.22;27.38;;;;;;;2.44;87.08;98408.66;5031522;28;20296;-74
2021/11/26 03:02:07;;;;;;;41.72;26.77;;;;;;;2.13;88.20;98395.88;5031834;28;20231;-74
2021/11/26 03:04:34;;;;;;;42.72;25.50;;;;;;;2.66;86.32;98396.16;5031456;28;20269;-75
2021/11/26 03:07:02;;;;;;;39.70;24.85;;;;;;;2.69;85.37;98395.16;5031677;28;20233;-75
2021/11/26 03:09:29;;;;;;;41.40;27.77;;;;;;;2.84;84.07;98378.50;5031165;28;20226;-74
2021/11/26 03:11:57;;;;;;;39.25;26.05;;;;;;;2.83;84.59;98375.94;5012345;28;20187;-74
2021/11/26 03:14:24;;;;;;;44.30;28.65;;;;;;;2.54;86.43;98377.25;5012797;28;20230;-74
2021/11/26 03:16:51;;;;;;;45.42;27.95;;;;;;;2.76;86.59;98369.16;5031155;28;20332;-74
2021/11/26 03:19:18;;;;;;;39.13;26.15;;;;;;;2.93;85.22;98374.56;5031442;28;20237;-74
2021/11/26 03:21:44;;;;;;;42.92;26.20;;;;;;;3.04;84.48;98368.75;5031192;28;20281;-75
2021/11/26 03:24:11;;;;;;;47.17;27.98;;;;;;;3.05;83.81;98375.78;5031944;28;20579;-74
2021/11/26 03:26:38;;;;;;;44.08;27.88;;;;;;;3.07;83.86;98365.94;5031229;28;20625;-74
2021/11/26 03:29:06;;;;;;;45.03;28.48;;;;;;;2.93;84.25;98370.09;5031495;28;20612;-73
2021/11/26 03:31:33;;;;;;;42.75;26.67;;;;;;;3.11;83.39;98372.84;5031500;28;20281;-72
2021/11/26 03:34:00;;;;;;;46.42;28.42;;;;;;;2.96;83.72;98374.41;5031705;28;20324;-73
2021/11/26 03:36:27;;;;;;;41.10;26.40;;;;;;;3.11;83.49;98367.50;5031433;28;20630;-73
2021/11/26 03:38:53;;;;;;;43.13;27.80;;;;;;;3.11;83.22;98365.72;5030460;28;20228;-73
2021/11/26 03:41:20;;;;;;;42.95;26.13;;;;;;;3.23;82.57;98347.44;5031353;28;20239;-74
2021/11/26 03:43:47;;;;;;;44.25;26.90;;;;;;;3.22;82.32;98354.56;5030982;28;20277;-74
2021/11/26 03:46:16;;;;;;;43.88;26.35;;;;;;;3.10;82.67;98357.81;5031794;28;20609;-75
2021/11/26 03:48:44;;;;;;;41.80;26.35;;;;;;;3.10;83.07;98347.19;5031587;28;20843;-74
2021/11/26 03:51:11;;;;;;;44.65;26.63;;;;;;;3.21;82.53;98334.25;5031412;28;20190;-74
2021/11/26 03:53:38;;;;;;;41.08;25.23;;;;;;;3.38;81.97;98337.88;5031907;28;21067;-73
2021/11/26 03:56:05;;;;;;;39.88;24.65;;;;;;;3.46;80.82;98333.00;5030803;28;20225;-74
2021/11/26 03:58:32;;;;;;;43.28;26.95;;;;;;;3.19;81.85;98324.59;5031372;28;20226;-74
2021/11/26 04:00:58;;;;;;;43.47;27.65;;;;;;;3.32;81.43;98334.56;5031194;28;20311;-74
2021/11/26 04:03:27;;;;;;;45.38;27.73;;;;;;;3.48;81.05;98328.47;5031613;28;20309;-74
2021/11/26 04:05:53;;;;;;;42.45;27.80;;;;;;;3.35;81.01;98330.91;5032565;28;20284;-74
2021/11/26 04:08:20;;;;;;;43.00;27.23;;;;;;;3.39;80.99;98332.44;5035157;28;20328;-73
2021/11/26 04:10:47;;;;;;;40.78;25.05;;;;;;;3.39;80.68;98329.78;5033724;28;20280;-74
2021/11/26 04:13:17;;;;;;;50.95;27.73;;;;;;;3.10;82.60;98325.91;5035503;28;20297;-74
2021/11/26 04:15:44;;;;;;;48.42;29.20;;;;;;;2.99;83.48;98320.25;5035127;28;20620;-74
2021/11/26 04:18:11;;;;;;;46.33;28.33;;;;;;;3.07;83.21;98318.91;5035280;28;20264;-74
2021/11/26 04:20:42;;;;;;;39.40;25.30;;;;;;;3.18;82.77;98307.78;5034988;28;20297;-73
2021/11/26 04:23:09;;;;;;;43.97;28.50;;;;;;;3.03;83.37;98309.38;5035182;28;20191;-75
2021/11/26 04:25:36;;;;;;;47.97;27.88;;;;;;;3.06;83.21;98303.06;5034523;28;20663;-74
2021/11/26 04:28:03;;;;;;;46.28;28.58;;;;;;;2.96;84.03;98299.97;5034976;28;20658;-73
2021/11/26 04:30:31;;;;;;;44.10;26.40;;;;;;;2.91;84.06;98294.88;5034398;28;20290;-74
2021/11/26 04:32:58;;;;;;;44.13;27.33;;;;;;;2.95;84.37;98306.22;5034979;28;20269;-73
2021/11/26 04:35:25;;;;;;;45.70;28.80;;;;;;;3.01;84.49;98297.97;5034390;28;20588;-74
2021/11/26 04:37:53;;;;;;;44.53;26.08;;;;;;;2.79;85.10;98286.63;5037125;28;20284;-74
2021/11/26 04:40:20;;;;;;;41.72;26.95;;;;;;;3.02;84.43;98286.38;5045283;28;20277;-74
2021/11/26 04:42:47;;;;;;;42.67;27.27;;;;;;;3.27;82.67;98290.50;5033986;28;20550;-74
2021/11/26 04:45:16;;;;;;;45.97;27.05;;;;;;;3.32;82.71;98281.38;5033713;28;20201;-74
2021/11/26 04:47:43;;;;;;;43.15;28.08;;;;;;;3.45;81.69;98284.25;5034246;28;20596;-73
2021/11/26 04:50:11;;;;;;;40.17;24.52;;;;;;;3.39;81.82;98278.38;5034599;28;20704;-75
2021/11/26 04:52:38;;;;;;;50.38;28.10;;;;;;;3.41;81.80;98273.84;5034489;28;20736;-73
2021/11/26 04:55:07;;;;;;;42.85;27.25;;;;;;;3.43;82.09;98271.97;5033733;28;20301;-73
2021/11/26 04:57:34;;;;;;;48.15;28.50;;;;;;;3.36;82.40;98259.94;5034102;28;20236;-74
2021/11/26 05:00:01;;;;;;;44.40;28.02;;;;;;;3.42;81.90;98259.63;5033894;28;20240;-73
2021/11/26 05:02:28;;;;;;;41.15;27.58;;;;;;;3.13;82.08;98249.47;5034421;28;20253;-73
2021/11/26 05:04:55;;;;;;;43.47;29.10;;;;;;;3.01;83.21;98255.41;5033706;28;20278;-73
2021/11/26 05:07:23;;;;;;;49.60;28.35;;;;;;;2.96;84.28;98259.22;5033811;28;20615;-74
2021/11/26 05:09:51;;;;;;;45.03;26.42;;;;;;;3.05;84.44;98257.00;5032569;28;20611;-74
2021/11/26 05:12:19;;;;;;;47.60;29.30;;;;;;;3.08;84.68;98259.50;5033583;28;20187;-72
2021/11/26 05:14:46;;;;;;;46.92;29.10;;;;;;;3.20;83.85;98250.03;5034145;28;20679;-73
2021/11/26 05:17:13;;;;;;;48.03;29.05;;;;;;;3.29;83.30;98259.38;5032117;28;20284;-73
2021/11/26 05:19:39;;;;;;;43.53;28.15;;;;;;;3.38;82.27;98258.91;5033072;28;20289;-73
2021/11/26 05:22:06;;;;;;;49.08;28.58;;;;;;;3.32;82.88;98257.44;5033857;28;20605;-73
2021/11/26 05:24:33;;;;;;;50.85;28.95;;;;;;;3.39;82.96;98251.78;5033581;28;20273;-73
2021/11/26 05:26:59;;;;;;;50.85;29.20;;;;;;;3.30;82.72;98251.31;5033408;28;20236;-74
2021/11/26 05:29:27;;;;;;;47.08;27.15;;;;;;;3.32;83.22;98256.53;5032686;28;20244;-73
2021/11/26 05:31:54;;;;;;;51.30;28.48;;;;;;;3.38;82.58;98250.06;5033049;28;20277;-73
2021/11/26 05:34:21;;;;;;;48.75;28.15;;;;;;;3.38;83.01;98247.41;5033284;28;20226;-73
2021/11/26 05:36:47;;;;;;;51.90;28.10;;;;;;;3.22;83.80;98239.34;5033601;28;20290;-73
2021/11/26 05:39:14;;;;;;;50.72;27.92;;;;;;;3.19;83.42;98235.03;5033322;28;20305;-73
2021/11/26 05:41:41;;;;;;;48.70;30.02;;;;;;;3.21;83.51;98237.59;5033202;28;20225;-72
2021/11/26 05:44:07;;;;;;;48.30;27.55;;;;;;;3.17;84.37;98236.91;5033670;28;20237;-75
2021/11/26 05:46:36;;;;;;;48.83;29.60;;;;;;;3.31;83.83;98228.22;5032807;28;20292;-73
2021/11/26 05:49:02;;;;;;;45.90;28.92;;;;;;;3.30;83.74;98235.34;5033134;28;20273;-73
2021/11/26 05:51:29;;;;;;;50.20;29.35;;;;;;;3.21;84.42;98229.63;5033206;28;20385;-74
2021/11/26 05:53:56;;;;;;;50.50;27.83;;;;;;;3.44;83.57;98216.03;5032768;28;20265;-75
2021/11/26 05:56:23;;;;;;;45.05;28.48;;;;;;;3.20;84.94;98211.94;5032608;28;20293;-74
2021/11/26 05:58:49;;;;;;;50.50;29.42;;;;;;;3.22;85.76;98215.41;5032750;28;20637;-74
2021/11/26 06:01:16;;;;;;;50.95;27.33;;;;;;;3.19;85.50;98207.56;5032317;28;20354;-72
2021/11/26 06:03:44;;;;;;;45.05;28.13;;;;;;;3.16;85.34;98211.22;5031403;28;20660;-72
2021/11/26 06:06:10;;;;;;;44.30;27.80;;;;;;;3.05;85.48;98209.13;5032849;28;20203;-73
2021/11/26 06:08:37;;;;;;;48.28;29.73;;;;;;;2.96;86.04;98204.25;5031832;28;20258;-75
2021/11/26 06:11:04;;;;;;;48.13;29.23;;;;;;;3.10;86.10;98204.44;5032365;28;20390;-73
2021/11/26 06:13:30;;;;;;;47.70;29.13;;;;;;;3.20;85.48;98198.66;5032067;28;20284;-73
2021/11/26 06:15:57;;;;;;;47.95;32.45;;;;;;;3.15;85.80;98190.06;5031996;28;20285;-75
2021/11/26 06:18:24;;;;;;;44.45;28.13;;;;;;;3.20;85.61;98194.19;5032554;28;20285;-73
2021/11/26 06:20:52;;;;;;;48.38;29.45;;;;;;;3.38;84.98;98188.88;5032597;28;20282;-74
2021/11/26 06:23:19;;;;;;;47.92;28.67;;;;;;;3.33;84.21;98197.09;5032329;28;20766;-74
2021/11/26 06:25:46;;;;;;;43.08;28.52;;;;;;;3.40;84.51;98187.84;5032072;28;20222;-73
2021/11/26 06:28:13;;;;;;;47.53;28.70;;;;;;;3.34;84.48;98186.34;5031959;28;20292;-72
2021/11/26 06:30:39;;;;;;;49.90;28.83;;;;;;;3.39;84.11;98179.94;5032379;28;20676;-73
2021/11/26 06:33:06;;;;;;;47.13;29.40;;;;;;;3.34;84.66;98185.50;5032154;28;20692;-75
2021/11/26 06:35:33;;;;;;;51.90;29.02;;;;;;;3.51;84.20;98174.84;5031974;28;20637;-73
2021/11/26 06:38:01;;;;;;;48.95;29.65;;;;;;;3.46;84.43;98160.94;5032364;28;20231;-74
2021/11/26 06:40:28;;;;;;;49.40;30.65;;;;;;;3.34;85.33;98161.56;5032287;28;20603;-75
2021/11/26 06:42:56;;;;;;;47.25;28.35;;;;;;;3.32;85.43;98156.34;5030210;28;20679;-73
2021/11/26 06:45:23;;;;;;;47.42;27.58;;;;;;;3.44;84.78;98149.50;5031926;28;20651;-74
2021/11/26 06:47:50;;;;;;;45.67;28.30;;;;;;;3.49;83.91;98147.47;5031461;28;20191;-76
2021/11/26 06:50:19;;;;;;;47.97;27.40;;;;;;;3.55;83.59;98138.31;5031586;28;20659;-74
2021/11/26 06:52:47;;;;;;;46.55;28.80;;;;;;;3.57;83.37;98144.38;5031598;28;20194;-73
2021/11/26 06:55:16;;;;;;;51.15;27.80;;;;;;;3.60;83.38;98143.38;5031610;28;20723;-74
2021/11/26 06:57:43;;;;;;;53.35;29.27;;;;;;;3.56;83.85;98134.69;5031848;28;20236;-74
2021/11/26 07:00:12;;;;;;;53.10;27.30;;;;;;;3.63;83.63;98141.41;5032271;28;20946;-74
2021/11/26 07:02:38;;;;;;;51.35;27.75;;;;;;;3.56;83.68;98132.03;5032043;28;20587;-73
2021/11/26 07:05:06;;;;;;;46.92;28.70;;;;;;;3.50;83.89;98138.53;5031351;28;20237;-74
2021/11/26 07:07:33;;;;;;;45.53;26.00;;;;;;;3.66;83.36;98140.38;5031386;28;20275;-74
2021/11/26 07:10:00;;;;;;;47.97;26.10;;;;;;;3.65;83.57;98136.00;5021193;28;20252;-73
2021/11/26 07:12:28;;;;;;;48.97;27.80;;;;;;;3.80;82.64;98129.88;5012303;28;20598;-72
2021/11/26 07:14:55;;;;;;;48.95;28.98;;;;;;;3.86;82.69;98123.34;5011912;28;20574;-74
2021/11/26 07:17:25;;;;;;;48.28;27.85;;;;;;;3.86;82.56;98126.84;5011962;28;20291;-74
2021/11/26 07:19:52;;;;;;;46.53;27.83;;;;;;;3.93;82.27;98122.94;5011871;28;20290;-74
2021/11/26 07:22:19;;;;;;;41.03;25.50;;;;;;;4.05;81.29;98120.50;5011905;28;20641;-73
2021/11/26 07:24:46;;;;;;;45.92;27.83;;;;;;;4.13;81.12;98107.63;5012460;28;20227;-74
2021/11/26 07:27:14;;;;;;;46.38;26.08;;;;;;;4.14;80.76;98104.91;5029696;28;20337;-73
2021/11/26 07:29:42;;;;;;;44.42;26.88;;;;;;;4.12;81.26;98108.59;5031627;28;20301;-73
2021/11/26 07:32:09;;;;;;;44.78;28.02;;;;;;;4.17;81.14;98107.38;5031059;28;20237;-73
2021/11/26 07:34:39;;;;;;;43.20;26.95;;;;;;;4.21;81.17;98105.41;5030835;28;20309;-74
2021/11/26 07:37:06;;;;;;;47.33;27.98;;;;;;;4.15;80.60;98103.09;5035183;28;20264;-74
2021/11/26 07:39:34;;;;;;;47.33;27.52;;;;;;;4.17;81.06;98103.88;5039305;28;20214;-74
2021/11/26 07:42:03;;;;;;;49.03;25.63;;;;;;;4.27;80.54;98099.72;5031039;28;20268;-73
2021/11/26 07:44:30;;;;;;;45.42;26.23;;;;;;;4.17;81.13;98095.88;5030773;28;20186;-74
2021/11/26 07:46:58;;;;;;;51.53;29.27;;;;;;;4.11;81.73;98097.06;5030386;28;20198;-72
2021/11/26 07:49:28;;;;;;;48.47;28.05;;;;;;;4.05;81.35;98085.88;5031334;28;20195;-74
2021/11/26 07:51:55;;;;;;;51.38;27.13;;;;;;;4.06;82.53;98090.28;5031502;28;20187;-74
2021/11/26 07:54:21;;;;;;;50.25;28.55;;;;;;;4.20;81.80;98081.53;5031041;28;20300;-73
2021/11/26 07:56:48;;;;;;;48.67;28.55;;;;;;;4.20;82.08;98076.19;5031407;28;20666;-75
2021/11/26 07:59:15;;;;;;;50.03;28.50;;;;;;;4.25;82.61;98076.78;5030541;28;20198;-73
2021/11/26 08:01:41;;;;;;;48.88;27.45;;;;;;;4.45;81.69;98075.66;5031121;28;20282;-73
2021/11/26 08:04:09;;;;;;;52.70;28.08;;;;;;;4.46;81.11;98072.06;5030617;28;20281;-74
2021/11/26 08:06:36;;;;;;;49.03;26.73;;;;;;;4.56;81.02;98070.56;5030705;28;20332;-74
2021/11/26 08:09:06;;;;;;;51.95;27.02;;;;;;;4.53;80.82;98071.59;5028695;28;20304;-74
2021/11/26 08:11:32;;;;;;;50.50;27.75;;;;;;;4.58;81.12;98072.19;5029955;28;20206;-73
2021/11/26 08:13:59;;;;;;;51.38;27.38;;;;;;;4.62;80.42;98072.03;5030696;28;20653;-73
2021/11/26 08:16:26;;;;;;;51.95;27.25;;;;;;;4.58;81.15;98064.19;5030462;28;20309;-73
2021/11/26 08:18:53;;;;;;;51.00;28.33;;;;;;;4.55;81.55;98055.53;5029627;28;20230;-74
2021/11/26 08:21:21;;;;;;;48.95;27.92;;;;;;;4.79;80.33;98059.44;5029213;28;20223;-74
2021/11/26 08:23:48;;;;;;;48.95;27.95;;;;;;;4.70;80.14;98059.94;5030491;28;20245;-74
2021/11/26 08:26:15;;;;;;;51.70;29.83;;;;;;;4.62;80.60;98053.38;5030971;28;20187;-74
2021/11/26 08:28:41;;;;;;;46.30;26.42;;;;;;;4.60;80.57;98050.78;5030050;28;21411;-74
2021/11/26 08:31:08;;;;;;;51.67;28.13;;;;;;;4.68;81.01;98051.19;5030764;28;20668;-73
2021/11/26 08:33:35;;;;;;;44.08;26.60;;;;;;;4.86;79.84;98048.38;5030319;28;20677;-74
2021/11/26 08:36:01;;;;;;;49.65;26.45;;;;;;;4.77;80.42;98049.78;5030004;28;20247;-74
2021/11/26 08:38:29;;;;;;;48.85;26.95;;;;;;;4.84;79.96;98050.28;5028978;28;20230;-75
2021/11/26 08:40:56;;;;;;;49.72;27.00;;;;;;;4.80;80.27;98050.47;5030192;28;20223;-75
2021/11/26 08:43:23;;;;;;;48.90;27.40;;;;;;;4.78;80.64;98046.16;5030093;28;20617;-75
2021/11/26 08:45:49;;;;;;;51.38;26.92;;;;;;;4.73;81.26;98034.94;5030535;28;20199;-74
2021/11/26 08:48:17;;;;;;;45.55;26.17;;;;;;;4.76;81.04;98032.91;5029128;28;20252;-74
2021/11/26 08:50:44;;;;;;;51.70;28.52;;;;;;;4.81;81.10;98025.50;5030006;28;20253;-74
2021/11/26 08:53:11;;;;;;;50.80;27.63;;;;;;;4.99;80.26;98022.69;5033443;28;20273;-74
2021/11/26 08:55:46;;;;;;;47.67;24.80;;;;;;;4.87;80.98;98020.78;5033578;28;20660;-72
2021/11/26 08:58:13;;;;;;;46.70;28.63;;;;;;;4.86;81.04;98019.91;5033384;28;20186;-73
2021/11/26 09:00:41;;;;;;;56.90;26.50;;;;;;;5.03;80.71;98018.03;5033193;28;20216;-74
2021/11/26 09:03:09;;;;;;;44.42;25.35;;;;;;;5.03;80.62;98002.88;5034007;28;20191;-74
2021/11/26 09:05:36;;;;;;;47.90;25.90;;;;;;;5.13;79.80;97990.72;5032805;28;20285;-74
2021/11/26 09:08:04;;;;;;;46.92;26.75;;;;;;;5.17;79.84;98000.22;5032870;28;20292;-74
2021/11/26 09:10:33;;;;;;;44.47;25.58;;;;;;;5.29;79.26;97992.41;5033115;28;20264;-72
2021/11/26 09:13:01;;;;;;;50.13;27.73;;;;;;;5.30;79.47;97988.81;5033559;28;20624;-74
2021/11/26 09:15:28;;;;;;;49.50;26.10;;;;;;;5.31;78.55;97983.34;5033179;28;20706;-73
2021/11/26 09:17:55;;;;;;;46.22;26.75;;;;;;;5.29;79.44;97981.72;5032257;28;20282;-72
2021/11/26 09:20:22;;;;;;;47.17;25.02;;;;;;;5.25;79.67;97986.41;5033294;28;20591;-74
2021/11/26 09:22:49;;;;;;;49.50;25.33;;;;;;;5.27;79.37;97983.63;5032967;28;20698;-73
2021/11/26 09:25:17;;;;;;;48.38;26.92;;;;;;;5.25;79.18;97975.75;5032534;28;20213;-74
2021/11/26 09:27:44;;;;;;;50.10;27.10;;;;;;;5.21;79.79;97979.56;5032874;28;20617;-74
2021/11/26 09:30:15;;;;;;;45.72;26.25;;;;;;;5.22;79.93;97981.25;5032503;28;20256;-74
2021/11/26 09:32:41;;;;;;;48.97;27.25;;;;;;;5.28;79.50;97967.53;5032404;28;20195;-74
2021/11/26 09:35:09;;;;;;;47.20;25.20;;;;;;;5.27;79.98;97972.97;5032951;28;20709;-75
2021/11/26 09:37:36;;;;;;;50.00;26.40;;;;;;;5.23;81.62;97962.50;5033072;28;20275;-75
2021/11/26 09:40:04;;;;;;;49.70;25.50;;;;;;;5.39;81.98;97964.19;5032587;28;20278;-74
2021/11/26 09:42:30;;;;;;;44.70;25.20;;;;;;;5.42;81.74;97962.19;5032591;28;20282;-74
2021/11/26 09:45:00;;;;;;;46.25;25.60;;;;;;;5.45;81.31;97950.47;5033298;28;20598;-75
2021/11/26 09:47:28;;;;;;;51.20;26.20;;;;;;;5.42;81.34;97943.50;5032987;28;20194;-74
2021/11/26 09:49:55;;;;;;;45.78;23.85;;;;;;;5.56;80.86;97941.75;5033372;28;20715;-73
2021/11/26 09:52:21;;;;;;;43.80;25.10;;;;;;;5.49;80.51;97938.63;5026986;28;20301;-75
2021/11/26 09:54:48;;;;;;;44.08;23.90;;;;;;;5.57;80.59;97933.66;5032458;28;20186;-73
2021/11/26 09:57:16;;;;;;;45.65;27.10;;;;;;;5.49;81.41;97925.28;5032377;28;20207;-74
2021/11/26 09:59:45;;;;;;;45.92;25.05;;;;;;;5.63;81.55;97922.59;5032662;28;20600;-74
2021/11/26 10:02:14;;;;;;;49.15;26.63;;;;;;;5.81;80.09;97912.53;5032038;28;20286;-74
2021/11/26 10:04:42;;;;;;;46.20;25.50;;;;;;;5.83;79.56;97902.59;5031916;28;20264;-74
2021/11/26 10:07:09;;;;;;;46.42;24.58;;;;;;;5.94;79.10;97899.22;5031854;28;20273;-73
2021/11/26 10:09:38;;;;;;;44.05;22.83;;;;;;;5.41;80.86;97906.25;5032261;28;20692;-74
2021/11/26 10:12:08;;;;;;;43.00;22.02;;;;;;;5.60;81.20;97901.41;5032228;28;20230;-74
2021/11/26 10:14:36;;;;;;;43.38;22.98;;;;;;;5.73;80.87;97895.28;5031209;28;20229;-74
2021/11/26 10:17:07;;;;;;;42.50;22.95;;;;;;;5.57;80.09;97888.28;5030573;28;20330;-75
2021/11/26 10:19:37;;;;;;;42.50;22.60;;;;;;;5.62;81.25;97887.97;5031400;28;20206;-73
2021/11/26 10:22:20;;;;;;;44.88;23.17;;;;;;;5.78;80.88;97882.47;5031612;28;20238;-74
2021/11/26 10:24:58;;;;;;;42.75;22.55;;;;;;;5.55;81.05;97871.50;5031380;28;20202;-74
2021/11/26 10:27:34;;;;;;;39.40;21.35;;;;;;;5.43;81.41;97872.31;5029027;28;20222;-73
2021/11/26 10:30:15;;;;;;;44.35;20.33;;;;;;;5.51;81.26;97869.97;5031533;28;20245;-73
2021/11/26 10:32:51;;;;;;;39.13;21.25;;;;;;;5.74;80.59;97868.47;5031066;28;20191;-74
2021/11/26 10:35:17;;;;;;;43.15;21.15;;;;;;;5.62;80.36;97859.47;5031612;28;20306;-74
2021/11/26 10:37:57;;;;;;;41.38;20.02;;;;;;;5.58;80.57;97859.75;5030840;28;20187;-74
2021/11/26 10:40:26;;;;;;;34.75;19.63;;;;;;;5.24;81.80;97859.28;5031754;28;20187;-74
2021/11/26 10:42:53;;;;;;;36.95;19.65;;;;;;;5.25;82.58;97854.81;5031623;28;20191;-73
2021/11/26 10:45:32;;;;;;;41.95;19.52;;;;;;;5.32;82.75;97854.31;5030934;28;20194;-74
2021/11/26 10:48:19;;;;;;;40.80;18.90;;;;;;;5.54;81.43;97850.22;5030503;28;20210;-73
2021/11/26 10:50:57;;;;;;;40.60;20.45;;;;;;;5.52;82.67;97842.34;5031220;28;20190;-74
2021/11/26 10:59:02;;;;;;;39.03;19.52;;;;;;;5.53;81.97;97814.69;5030977;28;20690;-74
2021/11/26 11:01:29;;;;;;;41.13;21.13;;;;;;;5.38;82.57;97815.69;5030698;28;20257;-75
2021/11/26 11:03:56;;;;;;;47.83;24.27;;;;;;;5.69;82.02;97811.00;5043416;28;20221;-75
2021/11/26 11:06:24;;;;;;;37.63;19.85;;;;;;;5.69;80.87;97811.00;5051012;28;20225;-75
2021/11/26 11:09:04;;;;;;;33.88;18.13;;;;;;;5.04;84.39;97799.19;5028255;28;20683;-75
2021/11/26 11:11:31;;;;;;;41.92;20.40;;;;;;;5.15;85.26;97798.50;5018508;28;20636;-74
2021/11/26 11:13:58;;;;;;;40.55;19.80;;;;;;;5.28;85.44;97790.56;5029454;28;20278;-74
2021/11/26 11:16:26;;;;;;;40.20;19.85;;;;;;;5.18;85.31;97788.50;5025980;28;20229;-74
2021/11/26 11:18:53;;;;;;;44.13;21.65;;;;;;;5.22;86.19;97774.00;5017880;28;20608;-74
2021/11/26 11:21:20;;;;;;;38.58;19.80;;;;;;;4.80;87.24;97782.97;5020239;28;20212;-75
2021/11/26 11:23:48;;;;;;;42.42;20.95;;;;;;;4.87;88.16;97778.09;5027109;28;20629;-74
2021/11/26 11:26:16;;;;;;;40.97;20.77;;;;;;;4.70;91.31;97766.69;5030517;28;20277;-75
2021/11/26 11:28:43;;;;;;;45.10;20.73;;;;;;;4.88;92.50;97763.81;5030318;28;20281;-73
2021/11/26 11:31:09;;;;;;;41.10;20.77;;;;;;;4.92;90.36;97768.00;5030331;28;20230;-75
2021/11/26 11:33:37;;;;;;;46.85;20.23;;;;;;;4.84;91.98;97751.63;5030778;28;20735;-73